sensor_id;sensor_type;location;lat;lon;timestamp;pressure;altitude;pressure_sealevel;temperature;humidity
71938;BME280;59810;48.800;9.086;2022-09-09T00:04:29;97289.91;;;16.88;60.11
71938;BME280;59810;48.800;9.086;2022-09-09T00:09:28;97282.31;;;16.85;59.97
71938;BME280;59810;48.800;9.086;2022-09-09T00:12:02;97278.28;;;16.82;60.49
71938;BME280;59810;48.800;9.086;2022-09-09T00:17:31;97276.06;;;16.84;60.59
71938;BME280;59810;48.800;9.086;2022-09-09T00:20:14;97275.25;;;16.84;60.33
71938;BME280;59810;48.800;9.086;2022-09-09T00:22:49;97271.41;;;16.85;59.90
71938;BME280;59810;48.800;9.086;2022-09-09T00:28:28;97267.38;;;16.82;60.18
71938;BME280;59810;48.800;9.086;2022-09-09T00:31:07;97269.78;;;16.84;59.76
71938;BME280;59810;48.800;9.086;2022-09-09T00:33:34;97264.56;;;16.87;59.93
71938;BME280;59810;48.800;9.086;2022-09-09T00:36:00;97271.63;;;16.88;59.45
71938;BME280;59810;48.800;9.086;2022-09-09T00:38:42;97271.13;;;16.86;60.23
71938;BME280;59810;48.800;9.086;2022-09-09T00:41:19;97272.72;;;16.87;60.02
71938;BME280;59810;48.800;9.086;2022-09-09T00:44:36;97266.78;;;16.85;59.99
71938;BME280;59810;48.800;9.086;2022-09-09T00:46:56;97270.50;;;16.89;60.46
71938;BME280;59810;48.800;9.086;2022-09-09T00:57:34;97274.78;;;16.95;60.01
71938;BME280;59810;48.800;9.086;2022-09-09T01:02:39;97272.56;;;16.97;60.07
71938;BME280;59810;48.800;9.086;2022-09-09T01:07:58;97262.19;;;16.99;60.32
71938;BME280;59810;48.800;9.086;2022-09-09T01:10:47;97265.41;;;17.01;60.25
71938;BME280;59810;48.800;9.086;2022-09-09T01:13:22;97256.13;;;17.02;60.34
71938;BME280;59810;48.800;9.086;2022-09-09T01:15:52;97262.06;;;17.04;60.17
71938;BME280;59810;48.800;9.086;2022-09-09T01:18:23;97262.28;;;17.08;60.31
71938;BME280;59810;48.800;9.086;2022-09-09T01:26:44;97275.03;;;17.13;59.95
71938;BME280;59810;48.800;9.086;2022-09-09T01:29:13;97281.78;;;17.15;60.23
71938;BME280;59810;48.800;9.086;2022-09-09T01:34:17;97286.44;;;17.15;60.25
71938;BME280;59810;48.800;9.086;2022-09-09T01:39:16;97281.38;;;17.08;60.50
71938;BME280;59810;48.800;9.086;2022-09-09T01:41:41;97287.13;;;17.06;60.91
71938;BME280;59810;48.800;9.086;2022-09-09T01:44:10;97292.09;;;17.04;60.92
71938;BME280;59810;48.800;9.086;2022-09-09T01:46:36;97288.34;;;17.00;61.04
71938;BME280;59810;48.800;9.086;2022-09-09T01:49:03;97287.22;;;17.01;60.89
71938;BME280;59810;48.800;9.086;2022-09-09T01:51:33;97283.41;;;17.02;60.96
71938;BME280;59810;48.800;9.086;2022-09-09T01:53:59;97290.75;;;17.02;61.11
71938;BME280;59810;48.800;9.086;2022-09-09T02:06:59;97270.09;;;16.82;62.04
71938;BME280;59810;48.800;9.086;2022-09-09T02:09:26;97278.47;;;16.72;62.19
71938;BME280;59810;48.800;9.086;2022-09-09T02:12:00;97283.47;;;16.65;62.75
71938;BME280;59810;48.800;9.086;2022-09-09T02:14:37;97299.81;;;16.65;62.45
71938;BME280;59810;48.800;9.086;2022-09-09T02:17:10;97290.63;;;16.61;62.60
71938;BME280;59810;48.800;9.086;2022-09-09T02:19:44;97289.84;;;16.55;62.54
71938;BME280;59810;48.800;9.086;2022-09-09T02:22:16;97283.97;;;16.48;62.98
71938;BME280;59810;48.800;9.086;2022-09-09T02:24:43;97283.25;;;16.42;63.22
71938;BME280;59810;48.800;9.086;2022-09-09T02:27:15;97284.66;;;16.40;63.46
71938;BME280;59810;48.800;9.086;2022-09-09T02:29:43;97299.75;;;16.32;63.65
71938;BME280;59810;48.800;9.086;2022-09-09T02:32:16;97309.13;;;16.26;63.81
71938;BME280;59810;48.800;9.086;2022-09-09T02:34:46;97304.81;;;16.20;64.16
71938;BME280;59810;48.800;9.086;2022-09-09T02:37:15;97302.25;;;16.10;64.72
71938;BME280;59810;48.800;9.086;2022-09-09T02:39:43;97302.84;;;16.07;65.13
71938;BME280;59810;48.800;9.086;2022-09-09T02:42:11;97292.59;;;15.99;65.58
71938;BME280;59810;48.800;9.086;2022-09-09T02:44:40;97295.84;;;16.01;65.65
71938;BME280;59810;48.800;9.086;2022-09-09T02:47:26;97285.59;;;15.93;66.08
71938;BME280;59810;48.800;9.086;2022-09-09T02:52:44;97281.38;;;15.81;66.77
71938;BME280;59810;48.800;9.086;2022-09-09T02:55:49;97280.88;;;15.79;66.97
71938;BME280;59810;48.800;9.086;2022-09-09T02:58:16;97267.84;;;15.76;67.14
71938;BME280;59810;48.800;9.086;2022-09-09T03:00:46;97266.22;;;15.75;67.39
71938;BME280;59810;48.800;9.086;2022-09-09T03:03:12;97263.22;;;15.77;67.53
71938;BME280;59810;48.800;9.086;2022-09-09T03:05:42;97258.06;;;15.75;67.33
71938;BME280;59810;48.800;9.086;2022-09-09T03:08:10;97255.91;;;15.72;67.73
71938;BME280;59810;48.800;9.086;2022-09-09T03:10:36;97249.88;;;15.75;67.57
71938;BME280;59810;48.800;9.086;2022-09-09T03:13:02;97248.19;;;15.79;67.57
71938;BME280;59810;48.800;9.086;2022-09-09T03:15:29;97247.09;;;15.80;67.23
71938;BME280;59810;48.800;9.086;2022-09-09T03:17:56;97249.81;;;15.80;66.96
71938;BME280;59810;48.800;9.086;2022-09-09T03:20:24;97252.53;;;15.80;67.36
71938;BME280;59810;48.800;9.086;2022-09-09T03:22:54;97254.38;;;15.85;66.76
71938;BME280;59810;48.800;9.086;2022-09-09T03:25:20;97257.63;;;15.87;66.56
71938;BME280;59810;48.800;9.086;2022-09-09T03:27:50;97254.09;;;15.86;66.65
71938;BME280;59810;48.800;9.086;2022-09-09T03:30:20;97264.75;;;15.83;66.28
71938;BME280;59810;48.800;9.086;2022-09-09T03:32:45;97269.38;;;15.82;66.68
71938;BME280;59810;48.800;9.086;2022-09-09T03:35:13;97265.06;;;15.81;66.59
71938;BME280;59810;48.800;9.086;2022-09-09T03:37:38;97265.06;;;15.81;66.44
71938;BME280;59810;48.800;9.086;2022-09-09T03:40:04;97260.19;;;15.78;66.54
71938;BME280;59810;48.800;9.086;2022-09-09T03:42:29;97269.47;;;15.77;66.06
71938;BME280;59810;48.800;9.086;2022-09-09T03:44:57;97272.69;;;15.79;65.83
71938;BME280;59810;48.800;9.086;2022-09-09T03:47:24;97271.53;;;15.85;65.54
71938;BME280;59810;48.800;9.086;2022-09-09T03:49:49;97269.31;;;15.87;65.46
71938;BME280;59810;48.800;9.086;2022-09-09T03:52:15;97262.47;;;15.90;65.46
71938;BME280;59810;48.800;9.086;2022-09-09T03:54:41;97268.44;;;15.92;65.16
71938;BME280;59810;48.800;9.086;2022-09-09T03:57:08;97255.28;;;15.99;64.71
71938;BME280;59810;48.800;9.086;2022-09-09T03:59:33;97262.28;;;16.05;64.58
71938;BME280;59810;48.800;9.086;2022-09-09T04:02:00;97264.94;;;16.10;64.50
71938;BME280;59810;48.800;9.086;2022-09-09T04:04:25;97273.31;;;16.14;64.17
71938;BME280;59810;48.800;9.086;2022-09-09T04:06:52;97261.53;;;16.18;63.99
71938;BME280;59810;48.800;9.086;2022-09-09T04:09:19;97259.03;;;16.22;63.74
71938;BME280;59810;48.800;9.086;2022-09-09T04:11:44;97266.59;;;16.25;63.92
71938;BME280;59810;48.800;9.086;2022-09-09T04:14:11;97257.88;;;16.28;63.52
71938;BME280;59810;48.800;9.086;2022-09-09T04:16:38;97266.56;;;16.30;64.07
71938;BME280;59810;48.800;9.086;2022-09-09T04:19:04;97280.19;;;16.30;64.08
71938;BME280;59810;48.800;9.086;2022-09-09T04:21:32;97281.50;;;16.33;64.34
71938;BME280;59810;48.800;9.086;2022-09-09T04:23:58;97278.47;;;16.34;64.25
71938;BME280;59810;48.800;9.086;2022-09-09T04:26:25;97278.84;;;16.28;64.98
71938;BME280;59810;48.800;9.086;2022-09-09T04:28:51;97279.97;;;16.27;64.90
71938;BME280;59810;48.800;9.086;2022-09-09T04:31:21;97277.50;;;16.25;65.14
71938;BME280;59810;48.800;9.086;2022-09-09T04:33:49;97280.81;;;16.22;64.85
71938;BME280;59810;48.800;9.086;2022-09-09T04:36:14;97278.59;;;16.24;65.09
71938;BME280;59810;48.800;9.086;2022-09-09T04:38:43;97287.88;;;16.23;64.74
71938;BME280;59810;48.800;9.086;2022-09-09T04:41:09;97288.19;;;16.22;65.02
71938;BME280;59810;48.800;9.086;2022-09-09T04:43:36;97286.06;;;16.18;64.99
71938;BME280;59810;48.800;9.086;2022-09-09T04:46:03;97291.34;;;16.10;65.22
71938;BME280;59810;48.800;9.086;2022-09-09T04:48:31;97287.09;;;16.04;65.24
71938;BME280;59810;48.800;9.086;2022-09-09T04:51:04;97288.78;;;16.00;65.75
71938;BME280;59810;48.800;9.086;2022-09-09T04:53:31;97294.22;;;16.00;66.63
71938;BME280;59810;48.800;9.086;2022-09-09T04:56:07;97282.31;;;15.96;65.65
71938;BME280;59810;48.800;9.086;2022-09-09T04:58:35;97287.50;;;15.92;65.88
71938;BME280;59810;48.800;9.086;2022-09-09T05:03:29;97294.03;;;15.91;66.07
71938;BME280;59810;48.800;9.086;2022-09-09T05:06:02;97292.13;;;15.92;65.83
71938;BME280;59810;48.800;9.086;2022-09-09T05:08:29;97297.28;;;15.93;65.56
71938;BME280;59810;48.800;9.086;2022-09-09T05:10:56;97304.09;;;15.96;65.56
71938;BME280;59810;48.800;9.086;2022-09-09T05:13:23;97305.69;;;15.97;65.54
71938;BME280;59810;48.800;9.086;2022-09-09T05:15:55;97316.81;;;16.00;65.34
71938;BME280;59810;48.800;9.086;2022-09-09T05:18:20;97311.88;;;16.02;65.48
71938;BME280;59810;48.800;9.086;2022-09-09T05:20:47;97309.38;;;16.06;65.23
71938;BME280;59810;48.800;9.086;2022-09-09T05:23:15;97304.75;;;16.06;65.03
71938;BME280;59810;48.800;9.086;2022-09-09T05:25:40;97301.72;;;16.08;65.05
71938;BME280;59810;48.800;9.086;2022-09-09T05:28:05;97306.88;;;16.09;65.41
71938;BME280;59810;48.800;9.086;2022-09-09T05:30:33;97310.13;;;16.11;64.69
71938;BME280;59810;48.800;9.086;2022-09-09T05:32:59;97307.91;;;16.13;64.85
71938;BME280;59810;48.800;9.086;2022-09-09T05:35:24;97314.69;;;16.16;64.59
71938;BME280;59810;48.800;9.086;2022-09-09T05:37:50;97320.66;;;16.18;64.83
71938;BME280;59810;48.800;9.086;2022-09-09T05:40:15;97312.47;;;16.18;64.63
71938;BME280;59810;48.800;9.086;2022-09-09T05:42:41;97318.44;;;16.20;64.47
71938;BME280;59810;48.800;9.086;2022-09-09T05:45:07;97321.69;;;16.22;64.75
71938;BME280;59810;48.800;9.086;2022-09-09T05:47:33;97321.97;;;16.21;65.02
71938;BME280;59810;48.800;9.086;2022-09-09T05:49:59;97315.13;;;16.23;64.93
71938;BME280;59810;48.800;9.086;2022-09-09T05:52:24;97321.84;;;16.31;64.69
71938;BME280;59810;48.800;9.086;2022-09-09T05:54:51;97326.41;;;16.35;64.20
71938;BME280;59810;48.800;9.086;2022-09-09T05:57:16;97318.75;;;16.37;64.51
71938;BME280;59810;48.800;9.086;2022-09-09T05:59:44;97321.69;;;16.41;64.25
71938;BME280;59810;48.800;9.086;2022-09-09T06:02:09;97330.16;;;16.39;64.10
71938;BME280;59810;48.800;9.086;2022-09-09T06:04:35;97331.19;;;16.43;64.31
71938;BME280;59810;48.800;9.086;2022-09-09T06:07:04;97329.28;;;16.44;64.47
71938;BME280;59810;48.800;9.086;2022-09-09T06:09:32;97325.22;;;16.41;64.63
71938;BME280;59810;48.800;9.086;2022-09-09T06:11:57;97324.41;;;16.41;64.90
71938;BME280;59810;48.800;9.086;2022-09-09T06:14:23;97322.72;;;16.45;64.81
71938;BME280;59810;48.800;9.086;2022-09-09T06:16:50;97318.97;;;16.41;64.77
71938;BME280;59810;48.800;9.086;2022-09-09T06:19:16;97325.53;;;16.40;65.26
71938;BME280;59810;48.800;9.086;2022-09-09T06:21:41;97326.34;;;16.40;65.61
71938;BME280;59810;48.800;9.086;2022-09-09T06:24:10;97324.72;;;16.39;65.21
71938;BME280;59810;48.800;9.086;2022-09-09T06:26:41;97332.97;;;16.34;65.90
71938;BME280;59810;48.800;9.086;2022-09-09T06:29:09;97333.78;;;16.35;66.33
71938;BME280;59810;48.800;9.086;2022-09-09T06:31:37;97331.34;;;16.33;66.20
71938;BME280;59810;48.800;9.086;2022-09-09T06:34:07;97338.41;;;16.34;66.64
71938;BME280;59810;48.800;9.086;2022-09-09T06:36:38;97344.38;;;16.36;66.28
71938;BME280;59810;48.800;9.086;2022-09-09T06:39:04;97334.81;;;16.39;66.64
71938;BME280;59810;48.800;9.086;2022-09-09T06:41:32;97341.06;;;16.39;66.91
71938;BME280;59810;48.800;9.086;2022-09-09T06:43:58;97342.38;;;16.42;66.72
71938;BME280;59810;48.800;9.086;2022-09-09T06:46:26;97342.31;;;16.47;66.67
71938;BME280;59810;48.800;9.086;2022-09-09T06:48:56;97337.38;;;16.49;66.80
71938;BME280;59810;48.800;9.086;2022-09-09T06:51:30;97340.31;;;16.53;66.31
71938;BME280;59810;48.800;9.086;2022-09-09T06:53:57;97331.50;;;16.61;66.33
71938;BME280;59810;48.800;9.086;2022-09-09T06:56:37;97339.88;;;16.64;66.34
71938;BME280;59810;48.800;9.086;2022-09-09T06:59:07;97333.06;;;16.67;66.17
71938;BME280;59810;48.800;9.086;2022-09-09T07:01:39;97338.22;;;16.68;66.10
71938;BME280;59810;48.800;9.086;2022-09-09T07:04:09;97339.75;;;16.74;66.31
71938;BME280;59810;48.800;9.086;2022-09-09T07:06:40;97341.59;;;16.79;66.26
71938;BME280;59810;48.800;9.086;2022-09-09T07:09:09;97340.19;;;16.82;66.25
71938;BME280;59810;48.800;9.086;2022-09-09T07:11:43;97343.22;;;16.80;66.58
71938;BME280;59810;48.800;9.086;2022-09-09T07:14:10;97345.72;;;16.76;66.55
71938;BME280;59810;48.800;9.086;2022-09-09T07:16:44;97350.28;;;16.81;66.56
71938;BME280;59810;48.800;9.086;2022-09-09T07:19:11;97346.66;;;16.86;66.71
71938;BME280;59810;48.800;9.086;2022-09-09T07:21:37;97340.59;;;16.89;66.27
71938;BME280;59810;48.800;9.086;2022-09-09T07:24:04;97343.28;;;16.94;66.45
71938;BME280;59810;48.800;9.086;2022-09-09T07:26:32;97338.53;;;16.99;66.30
71938;BME280;59810;48.800;9.086;2022-09-09T07:28:58;97348.25;;;17.05;66.76
71938;BME280;59810;48.800;9.086;2022-09-09T07:31:26;97345.25;;;17.21;66.37
71938;BME280;59810;48.800;9.086;2022-09-09T07:33:52;97341.66;;;17.25;66.54
71938;BME280;59810;48.800;9.086;2022-09-09T07:36:21;97338.63;;;17.40;65.32
71938;BME280;59810;48.800;9.086;2022-09-09T07:38:51;97336.31;;;17.48;65.26
71938;BME280;59810;48.800;9.086;2022-09-09T07:41:25;97344.09;;;17.54;65.45
71938;BME280;59810;48.800;9.086;2022-09-09T07:43:53;97340.97;;;17.47;64.89
71938;BME280;59810;48.800;9.086;2022-09-09T07:46:24;97347.53;;;17.46;65.41
71938;BME280;59810;48.800;9.086;2022-09-09T07:48:54;97355.13;;;17.49;65.84
71938;BME280;59810;48.800;9.086;2022-09-09T07:51:32;97356.63;;;17.55;65.72
71938;BME280;59810;48.800;9.086;2022-09-09T07:54:00;97349.09;;;17.66;65.88
71938;BME280;59810;48.800;9.086;2022-09-09T07:56:29;97339.81;;;17.81;64.83
71938;BME280;59810;48.800;9.086;2022-09-09T07:58:56;97321.88;;;17.88;63.90
71938;BME280;59810;48.800;9.086;2022-09-09T08:01:29;97340.75;;;17.90;63.74
71938;BME280;59810;48.800;9.086;2022-09-09T08:03:56;97352.16;;;17.92;63.13
71938;BME280;59810;48.800;9.086;2022-09-09T08:06:25;97360.75;;;17.99;69.14
71938;BME280;59810;48.800;9.086;2022-09-09T08:08:52;97366.72;;;18.01;68.16
71938;BME280;59810;48.800;9.086;2022-09-09T08:11:18;97352.44;;;18.04;67.66
71938;BME280;59810;48.800;9.086;2022-09-09T08:13:44;97351.84;;;18.07;64.57
71938;BME280;59810;48.800;9.086;2022-09-09T08:16:17;97346.25;;;18.12;64.03
71938;BME280;59810;48.800;9.086;2022-09-09T08:18:49;97363.06;;;18.19;65.32
71938;BME280;59810;48.800;9.086;2022-09-09T08:21:23;97370.44;;;18.32;64.34
71938;BME280;59810;48.800;9.086;2022-09-09T08:23:51;97381.75;;;18.40;64.18
71938;BME280;59810;48.800;9.086;2022-09-09T08:26:19;97380.41;;;18.51;64.34
71938;BME280;59810;48.800;9.086;2022-09-09T08:28:48;97376.28;;;18.67;62.66
71938;BME280;59810;48.800;9.086;2022-09-09T08:31:29;97374.03;;;18.69;62.90
71938;BME280;59810;48.800;9.086;2022-09-09T08:33:55;97378.56;;;18.74;62.54
71938;BME280;59810;48.800;9.086;2022-09-09T08:36:23;97370.88;;;18.76;62.84
71938;BME280;59810;48.800;9.086;2022-09-09T08:38:51;97364.66;;;18.84;61.69
71938;BME280;59810;48.800;9.086;2022-09-09T08:51:39;97366.72;;;19.23;60.61
71938;BME280;59810;48.800;9.086;2022-09-09T08:54:04;97361.75;;;19.25;59.87
71938;BME280;59810;48.800;9.086;2022-09-09T08:56:31;97368.34;;;19.24;58.91
71938;BME280;59810;48.800;9.086;2022-09-09T08:58:59;97367.91;;;19.31;59.63
71938;BME280;59810;48.800;9.086;2022-09-09T09:10:29;97390.00;;;19.56;57.06
71938;BME280;59810;48.800;9.086;2022-09-09T09:13:00;97387.09;;;19.39;59.52
71938;BME280;59810;48.800;9.086;2022-09-09T09:15:32;97380.91;;;19.25;59.50
71938;BME280;59810;48.800;9.086;2022-09-09T09:18:02;97388.69;;;19.09;60.88
71938;BME280;59810;48.800;9.086;2022-09-09T09:20:55;97376.72;;;19.05;61.21
71938;BME280;59810;48.800;9.086;2022-09-09T09:23:25;97377.00;;;18.95;61.17
71938;BME280;59810;48.800;9.086;2022-09-09T09:26:00;97376.41;;;18.84;60.10
71938;BME280;59810;48.800;9.086;2022-09-09T09:28:29;97386.78;;;18.74;61.36
71938;BME280;59810;48.800;9.086;2022-09-09T09:31:01;97385.09;;;18.64;62.61
71938;BME280;59810;48.800;9.086;2022-09-09T09:36:07;97390.84;;;18.49;63.91
71938;BME280;59810;48.800;9.086;2022-09-09T09:38:34;97384.47;;;18.53;62.47
71938;BME280;59810;48.800;9.086;2022-09-09T09:41:00;97373.44;;;18.58;63.75
71938;BME280;59810;48.800;9.086;2022-09-09T09:43:32;97372.22;;;18.64;59.05
71938;BME280;59810;48.800;9.086;2022-09-09T09:46:04;97365.69;;;18.74;57.07
71938;BME280;59810;48.800;9.086;2022-09-09T09:48:29;97372.53;;;18.85;54.24
71938;BME280;59810;48.800;9.086;2022-09-09T09:51:13;97362.50;;;18.94;55.86
71938;BME280;59810;48.800;9.086;2022-09-09T09:53:41;97354.28;;;18.94;53.27
71938;BME280;59810;48.800;9.086;2022-09-09T09:56:13;97351.91;;;19.02;53.39
71938;BME280;59810;48.800;9.086;2022-09-09T10:01:28;97336.63;;;19.23;54.33
71938;BME280;59810;48.800;9.086;2022-09-09T10:04:12;97343.75;;;19.33;54.55
71938;BME280;59810;48.800;9.086;2022-09-09T10:06:40;97339.47;;;19.49;54.73
71938;BME280;59810;48.800;9.086;2022-09-09T10:09:29;97337.00;;;19.61;53.19
71938;BME280;59810;48.800;9.086;2022-09-09T10:18:02;97332.06;;;19.80;54.25
71938;BME280;59810;48.800;9.086;2022-09-09T10:20:40;97319.22;;;19.89;54.64
71938;BME280;59810;48.800;9.086;2022-09-09T10:31:30;97318.75;;;20.53;51.76
71938;BME280;59810;48.800;9.086;2022-09-09T10:36:45;97327.28;;;20.86;50.29
71938;BME280;59810;48.800;9.086;2022-09-09T10:44:17;97312.94;;;21.62;47.07
71938;BME280;59810;48.800;9.086;2022-09-09T10:49:44;97317.44;;;22.13;44.89
71938;BME280;59810;48.800;9.086;2022-09-09T10:55:14;97330.38;;;22.04;47.01
71938;BME280;59810;48.800;9.086;2022-09-09T11:02:58;97361.75;;;20.27;53.93
71938;BME280;59810;48.800;9.086;2022-09-09T11:05:38;97373.28;;;19.67;58.27
71938;BME280;59810;48.800;9.086;2022-09-09T11:08:19;97368.47;;;19.19;63.70
71938;BME280;59810;48.800;9.086;2022-09-09T11:10:50;97365.28;;;18.81;62.89
71938;BME280;59810;48.800;9.086;2022-09-09T11:13:28;97366.53;;;18.61;63.37
71938;BME280;59810;48.800;9.086;2022-09-09T11:16:35;97368.78;;;18.59;62.21
71938;BME280;59810;48.800;9.086;2022-09-09T11:22:06;97381.88;;;18.84;57.37
71938;BME280;59810;48.800;9.086;2022-09-09T11:24:34;97387.47;;;18.79;56.16
71938;BME280;59810;48.800;9.086;2022-09-09T11:27:07;97371.09;;;18.65;56.30
71938;BME280;59810;48.800;9.086;2022-09-09T11:37:52;97394.03;;;18.28;60.18
71938;BME280;59810;48.800;9.086;2022-09-09T11:40:27;97396.66;;;18.20;60.72
71938;BME280;59810;48.800;9.086;2022-09-09T11:43:15;97385.22;;;18.18;60.65
71938;BME280;59810;48.800;9.086;2022-09-09T11:45:51;97379.25;;;18.16;60.98
71938;BME280;59810;48.800;9.086;2022-09-09T11:48:59;97377.56;;;17.92;60.11
71938;BME280;59810;48.800;9.086;2022-09-09T11:51:26;97377.03;;;18.04;61.13
71938;BME280;59810;48.800;9.086;2022-09-09T11:56:54;97352.00;;;18.38;58.69
71938;BME280;59810;48.800;9.086;2022-09-09T11:59:31;97347.31;;;18.66;58.13
71938;BME280;59810;48.800;9.086;2022-09-09T12:04:40;97352.56;;;19.52;55.88
71938;BME280;59810;48.800;9.086;2022-09-09T12:09:48;97344.22;;;19.88;54.59
71938;BME280;59810;48.800;9.086;2022-09-09T12:12:24;97341.16;;;20.55;52.62
71938;BME280;59810;48.800;9.086;2022-09-09T12:17:26;97335.94;;;21.49;50.00
71938;BME280;59810;48.800;9.086;2022-09-09T12:22:55;97339.72;;;21.73;46.81
71938;BME280;59810;48.800;9.086;2022-09-09T12:28:16;97354.19;;;21.44;48.39
71938;BME280;59810;48.800;9.086;2022-09-09T12:30:53;97351.97;;;21.29;48.80
71938;BME280;59810;48.800;9.086;2022-09-09T12:33:21;97348.53;;;21.41;47.58
71938;BME280;59810;48.800;9.086;2022-09-09T12:35:57;97339.00;;;21.47;47.25
71938;BME280;59810;48.800;9.086;2022-09-09T12:38:36;97334.94;;;21.53;47.31
71938;BME280;59810;48.800;9.086;2022-09-09T12:41:03;97340.25;;;22.05;47.28
71938;BME280;59810;48.800;9.086;2022-09-09T12:43:29;97337.28;;;22.40;45.94
71938;BME280;59810;48.800;9.086;2022-09-09T12:46:03;97324.38;;;22.11;45.36
71938;BME280;59810;48.800;9.086;2022-09-09T12:48:39;97338.06;;;22.49;44.55
71938;BME280;59810;48.800;9.086;2022-09-09T12:51:23;97328.16;;;22.77;45.16
71938;BME280;59810;48.800;9.086;2022-09-09T12:53:51;97324.66;;;22.89;42.78
71938;BME280;59810;48.800;9.086;2022-09-09T12:56:22;97319.16;;;22.89;43.47
71938;BME280;59810;48.800;9.086;2022-09-09T12:58:51;97319.97;;;23.22;42.72
71938;BME280;59810;48.800;9.086;2022-09-09T13:01:32;97324.03;;;23.04;44.11
71938;BME280;59810;48.800;9.086;2022-09-09T13:04:00;97327.38;;;22.68;44.34
71938;BME280;59810;48.800;9.086;2022-09-09T13:06:30;97310.72;;;23.06;44.39
71938;BME280;59810;48.800;9.086;2022-09-09T13:09:00;97309.31;;;23.00;43.73
71938;BME280;59810;48.800;9.086;2022-09-09T13:13:57;97308.53;;;23.00;44.54
71938;BME280;59810;48.800;9.086;2022-09-09T13:16:31;97301.97;;;22.92;43.52
71938;BME280;59810;48.800;9.086;2022-09-09T13:19:16;97294.50;;;23.25;43.44
71938;BME280;59810;48.800;9.086;2022-09-09T13:21:42;97307.38;;;23.01;43.58
71938;BME280;59810;48.800;9.086;2022-09-09T13:24:33;97295.34;;;23.05;43.78
71938;BME280;59810;48.800;9.086;2022-09-09T13:27:02;97305.38;;;23.10;44.07
71938;BME280;59810;48.800;9.086;2022-09-09T13:29:30;97294.13;;;22.82;43.79
71938;BME280;59810;48.800;9.086;2022-09-09T13:32:17;97305.06;;;22.90;44.10
71938;BME280;59810;48.800;9.086;2022-09-09T13:34:54;97304.97;;;22.57;44.16
71938;BME280;59810;48.800;9.086;2022-09-09T13:37:31;97300.00;;;22.51;44.93
71938;BME280;59810;48.800;9.086;2022-09-09T13:39:58;97295.69;;;22.20;45.66
71938;BME280;59810;48.800;9.086;2022-09-09T13:42:29;97298.66;;;22.15;45.06
71938;BME280;59810;48.800;9.086;2022-09-09T13:44:56;97291.38;;;21.81;45.36
71938;BME280;59810;48.800;9.086;2022-09-09T13:49:54;97279.97;;;21.62;45.56
71938;BME280;59810;48.800;9.086;2022-09-09T13:52:21;97275.69;;;22.02;43.45
71938;BME280;59810;48.800;9.086;2022-09-09T13:54:51;97275.84;;;22.56;40.38
71938;BME280;59810;48.800;9.086;2022-09-09T13:57:22;97282.94;;;22.36;40.45
71938;BME280;59810;48.800;9.086;2022-09-09T13:59:49;97280.22;;;22.07;42.00
71938;BME280;59810;48.800;9.086;2022-09-09T14:02:15;97272.69;;;21.95;42.47
71938;BME280;59810;48.800;9.086;2022-09-09T14:04:42;97279.59;;;22.01;42.49
71938;BME280;59810;48.800;9.086;2022-09-09T14:07:15;97281.47;;;22.39;41.69
71938;BME280;59810;48.800;9.086;2022-09-09T14:09:41;97284.16;;;22.27;42.25
71938;BME280;59810;48.800;9.086;2022-09-09T14:12:13;97286.72;;;22.53;41.60
71938;BME280;59810;48.800;9.086;2022-09-09T14:14:40;97281.69;;;23.09;39.71
71938;BME280;59810;48.800;9.086;2022-09-09T14:17:07;97268.66;;;23.75;38.54
71938;BME280;59810;48.800;9.086;2022-09-09T14:19:33;97276.78;;;23.59;38.54
71938;BME280;59810;48.800;9.086;2022-09-09T14:21:59;97285.97;;;23.64;38.60
71938;BME280;59810;48.800;9.086;2022-09-09T14:24:24;97271.28;;;23.59;37.54
71938;BME280;59810;48.800;9.086;2022-09-09T14:26:53;97276.31;;;23.57;37.09
71938;BME280;59810;48.800;9.086;2022-09-09T14:29:18;97273.16;;;22.89;38.64
71938;BME280;59810;48.800;9.086;2022-09-09T14:31:43;97273.16;;;22.48;39.71
71938;BME280;59810;48.800;9.086;2022-09-09T14:34:09;97280.72;;;22.00;40.60
71938;BME280;59810;48.800;9.086;2022-09-09T14:36:36;97274.72;;;22.07;40.93
71938;BME280;59810;48.800;9.086;2022-09-09T14:39:01;97285.78;;;22.28;40.54
71938;BME280;59810;48.800;9.086;2022-09-09T14:41:27;97269.59;;;23.22;38.84
71938;BME280;59810;48.800;9.086;2022-09-09T14:43:54;97273.78;;;23.52;38.00
71938;BME280;59810;48.800;9.086;2022-09-09T14:46:20;97270.63;;;23.29;38.61
71938;BME280;59810;48.800;9.086;2022-09-09T14:48:46;97281.72;;;23.66;38.02
71938;BME280;59810;48.800;9.086;2022-09-09T14:51:19;97278.44;;;23.40;37.10
71938;BME280;59810;48.800;9.086;2022-09-09T14:53:47;97276.81;;;23.26;37.53
71938;BME280;59810;48.800;9.086;2022-09-09T14:56:16;97279.03;;;23.00;38.90
71938;BME280;59810;48.800;9.086;2022-09-09T14:58:44;97289.59;;;22.56;39.98
71938;BME280;59810;48.800;9.086;2022-09-09T15:01:12;97295.22;;;22.39;40.28
71938;BME280;59810;48.800;9.086;2022-09-09T15:03:39;97293.00;;;22.12;40.79
71938;BME280;59810;48.800;9.086;2022-09-09T15:06:12;97292.59;;;21.92;41.62
71938;BME280;59810;48.800;9.086;2022-09-09T15:08:40;97301.88;;;21.79;42.82
71938;BME280;59810;48.800;9.086;2022-09-09T15:11:06;97299.56;;;21.52;42.91
71938;BME280;59810;48.800;9.086;2022-09-09T15:13:35;97290.53;;;21.42;42.00
71938;BME280;59810;48.800;9.086;2022-09-09T15:16:06;97293.16;;;21.22;42.72
71938;BME280;59810;48.800;9.086;2022-09-09T15:18:32;97293.19;;;21.04;43.27
71938;BME280;59810;48.800;9.086;2022-09-09T15:21:02;97296.75;;;20.96;43.42
71938;BME280;59810;48.800;9.086;2022-09-09T15:23:28;97288.69;;;20.91;43.98
71938;BME280;59810;48.800;9.086;2022-09-09T15:25:56;97287.41;;;20.89;43.22
71938;BME280;59810;48.800;9.086;2022-09-09T15:28:21;97295.88;;;21.48;43.06
71938;BME280;59810;48.800;9.086;2022-09-09T15:30:51;97280.56;;;22.05;41.65
71938;BME280;59810;48.800;9.086;2022-09-09T15:33:21;97291.88;;;22.13;41.55
71938;BME280;59810;48.800;9.086;2022-09-09T15:35:46;97285.75;;;21.98;42.93
71938;BME280;59810;48.800;9.086;2022-09-09T15:38:12;97282.06;;;21.94;45.75